Time;durP1;ratioP1;P1;durP2;ratioP2;P2;SDS_P1;SDS_P2;PMS_P1;PMS_P2;Temp;Humidity;BMP_temperature;BMP_pressure;BME280_temperature;BME280_humidity;BME280_pressure;Samples;Min_cycle;Max_cycle;Signal;HPM_P1;HPM_P2
2023/07/06 00:02:29;;;;;;;10.98;5.00;;;;;;;16.94;99.64;101415.69;5053977;28;20511;-64
2023/07/06 00:04:57;;;;;;;12.15;4.72;;;;;;;16.92;100.00;101413.22;5055634;28;20041;-62
2023/07/06 00:07:25;;;;;;;9.02;5.00;;;;;;;16.92;99.90;101420.66;5052259;28;20045;-64
2023/07/06 00:09:52;;;;;;;11.80;5.68;;;;;;;16.91;99.75;101408.84;5057185;28;20049;-63
2023/07/06 00:12:22;;;;;;;9.70;5.07;;;;;;;16.91;99.90;101416.25;5060302;28;20045;-64
2023/07/06 00:14:53;;;;;;;10.25;4.35;;;;;;;16.89;99.80;101421.25;5041674;28;20097;-62
2023/07/06 00:17:21;;;;;;;12.90;4.55;;;;;;;16.88;99.62;101412.16;5053245;28;21850;-62
2023/07/06 00:19:49;;;;;;;8.02;3.92;;;;;;;16.86;99.76;101414.41;5062275;28;20045;-64
2023/07/06 00:22:18;;;;;;;9.57;4.22;;;;;;;16.85;99.51;101412.75;5048184;28;20049;-64
2023/07/06 00:24:48;;;;;;;9.57;4.57;;;;;;;16.82;99.57;101418.84;5035122;28;20049;-63
2023/07/06 00:27:16;;;;;;;9.68;4.00;;;;;;;16.80;99.81;101418.34;5040299;28;20367;-64
2023/07/06 00:30:40;;;;;;;8.63;4.45;;;;;;;16.79;99.75;101416.72;5052998;28;20041;-63
2023/07/06 00:32:34;;;;;;;9.20;4.38;;;;;;;16.78;99.29;101424.13;5027639;28;20059;-62
2023/07/06 00:35:04;;;;;;;10.32;3.90;;;;;;;16.77;99.68;101418.91;5016704;28;20053;-65
2023/07/06 00:37:32;;;;;;;11.15;4.05;;;;;;;16.77;99.25;101419.72;5060768;28;20045;-65
2023/07/06 00:40:00;;;;;;;8.43;3.90;;;;;;;16.76;99.13;101420.00;5035783;28;20045;-65
2023/07/06 00:42:30;;;;;;;9.05;4.13;;;;;;;16.72;98.73;101422.53;5036874;28;20416;-64
2023/07/06 00:44:58;;;;;;;9.48;3.95;;;;;;;16.73;98.48;101420.59;5049141;28;20049;-62
2023/07/06 00:47:33;;;;;;;8.13;3.67;;;;;;;16.70;98.59;101421.19;5035157;28;20038;-64
2023/07/06 00:50:13;;;;;;;9.98;4.07;;;;;;;16.68;98.64;101429.72;5052013;28;20045;-63
2023/07/06 00:53:05;;;;;;;10.88;4.32;;;;;;;16.67;97.95;101419.84;5048776;28;20052;-63
2023/07/06 00:55:40;;;;;;;7.97;4.07;;;;;;;16.64;97.96;101414.09;5053375;28;20051;-63
2023/07/06 00:58:33;;;;;;;8.45;3.67;;;;;;;16.62;97.94;101419.91;5029961;28;20057;-64
2023/07/06 01:01:04;;;;;;;6.93;3.58;;;;;;;16.60;97.65;101422.13;5016604;28;20052;-64
2023/07/06 01:03:33;;;;;;;9.85;4.30;;;;;;;16.60;97.48;101416.63;5032110;28;20046;-64
2023/07/06 01:06:03;;;;;;;6.25;3.05;;;;;;;16.58;97.17;101419.66;5032497;28;20044;-64
2023/07/06 01:08:35;;;;;;;9.88;3.95;;;;;;;16.57;96.64;101423.56;5053447;28;20053;-63
2023/07/06 01:11:04;;;;;;;9.65;3.95;;;;;;;16.56;96.48;101415.56;5045186;28;20040;-65
2023/07/06 01:13:33;;;;;;;7.53;3.40;;;;;;;16.55;96.46;101423.00;5033821;28;20045;-64
2023/07/06 01:16:18;;;;;;;9.38;3.60;;;;;;;16.54;95.88;101418.59;5033790;28;20425;-63
2023/07/06 01:18:55;;;;;;;8.97;4.17;;;;;;;16.52;95.73;101415.31;5032235;28;20216;-62
2023/07/06 01:21:39;;;;;;;8.18;3.47;;;;;;;16.51;94.91;101419.22;5044626;28;20551;-64
2023/07/06 01:24:25;;;;;;;7.60;3.40;;;;;;;16.49;95.11;101421.44;5052299;28;20523;-64
2023/07/06 01:27:02;;;;;;;6.53;3.20;;;;;;;16.48;95.10;101419.81;5037247;28;20041;-63
2023/07/06 01:30:01;;;;;;;9.63;3.53;;;;;;;16.47;94.98;101428.34;5034257;28;20041;-63
2023/07/06 01:32:32;;;;;;;8.27;3.67;;;;;;;16.46;94.50;101424.78;5037730;28;20049;-63
2023/07/06 01:35:07;;;;;;;9.60;4.05;;;;;;;16.44;94.50;101421.50;5053361;28;20131;-63
2023/07/06 01:37:41;;;;;;;9.23;3.50;;;;;;;16.43;94.61;101422.63;5054019;28;20041;-63
2023/07/06 01:40:11;;;;;;;6.88;3.47;;;;;;;16.40;94.49;101431.44;5053743;28;20094;-61
2023/07/06 01:42:40;;;;;;;10.63;3.58;;;;;;;16.37;94.78;101423.78;5038789;28;20506;-61
2023/07/06 01:45:16;;;;;;;8.00;3.33;;;;;;;16.36;94.54;101422.16;5051627;28;20382;-64
2023/07/06 01:47:55;;;;;;;7.93;3.70;;;;;;;16.34;94.14;101425.19;5057166;28;20044;-63
2023/07/06 01:50:44;;;;;;;8.32;3.40;;;;;;;16.29;94.07;101425.25;5056915;28;20051;-63
2023/07/06 01:53:45;;;;;;;6.13;3.08;;;;;;;16.28;94.63;101426.34;5021820;28;20041;-62
2023/07/06 01:56:49;;;;;;;8.65;3.30;;;;;;;16.29;94.20;101428.00;5043333;28;20037;-62
2023/07/06 01:59:19;;;;;;;9.60;3.43;;;;;;;16.26;94.15;101428.59;5042646;28;20061;-64
2023/07/06 02:01:59;;;;;;;7.68;3.30;;;;;;;16.24;93.83;101428.03;5039204;28;20049;-62
2023/07/06 02:04:30;;;;;;;7.85;3.40;;;;;;;16.24;93.56;101429.97;5055787;28;20440;-63
2023/07/06 02:07:03;;;;;;;8.48;3.50;;;;;;;16.23;93.56;101431.06;5038358;28;20176;-65
2023/07/06 02:09:31;;;;;;;7.55;3.28;;;;;;;16.23;93.65;101433.81;5044933;28;20038;-63
2023/07/06 02:11:59;;;;;;;7.80;3.00;;;;;;;16.22;93.18;101423.94;5035795;28;20163;-63
2023/07/06 02:14:26;;;;;;;6.45;3.03;;;;;;;16.20;93.22;101424.22;5037926;28;20056;-65
2023/07/06 02:16:54;;;;;;;8.77;3.65;;;;;;;16.21;93.28;101430.53;5038606;28;20045;-63
2023/07/06 02:19:22;;;;;;;8.77;3.15;;;;;;;16.18;92.93;101421.75;5054759;28;20103;-63
2023/07/06 02:21:50;;;;;;;8.82;2.80;;;;;;;16.17;93.17;101431.13;5053952;28;20045;-63
2023/07/06 02:24:18;;;;;;;7.07;3.17;;;;;;;16.17;93.22;101419.31;5055942;28;20526;-63
2023/07/06 02:26:46;;;;;;;7.72;3.05;;;;;;;16.16;92.76;101421.25;5022443;28;20064;-62
2023/07/06 02:29:15;;;;;;;10.23;3.72;;;;;;;16.14;92.74;101423.47;5036003;28;20437;-64
2023/07/06 02:31:46;;;;;;;8.25;3.30;;;;;;;16.14;92.35;101428.16;5036333;28;20049;-62
2023/07/06 02:34:14;;;;;;;10.70;3.10;;;;;;;16.13;92.81;101421.81;5020008;28;20045;-65
2023/07/06 02:36:42;;;;;;;8.93;3.30;;;;;;;16.11;92.43;101418.53;5047084;28;20120;-64
2023/07/06 02:39:10;;;;;;;8.77;3.47;;;;;;;16.12;92.48;101419.38;5056335;28;20049;-64
2023/07/06 02:41:37;;;;;;;6.75;2.97;;;;;;;16.09;91.99;101426.28;5055222;28;20049;-63
2023/07/06 02:44:05;;;;;;;8.57;3.28;;;;;;;16.06;92.29;101424.09;5055527;28;20053;-64
2023/07/06 02:46:33;;;;;;;7.72;3.40;;;;;;;16.05;92.20;101422.47;5025868;28;20494;-64
2023/07/06 02:49:03;;;;;;;5.97;2.70;;;;;;;16.01;91.88;101418.66;5035653;28;20045;-62
2023/07/06 02:51:34;;;;;;;7.68;3.00;;;;;;;16.00;92.13;101424.44;5033188;28;20050;-61
2023/07/06 02:54:01;;;;;;;8.43;3.38;;;;;;;15.98;92.23;101421.97;5050486;28;20049;-63
2023/07/06 02:56:29;;;;;;;6.97;3.05;;;;;;;15.98;92.37;101422.78;5053177;28;20094;-62
2023/07/06 02:58:57;;;;;;;8.63;3.25;;;;;;;15.96;92.05;101421.44;5049932;28;20060;-63
2023/07/06 03:01:25;;;;;;;6.82;3.13;;;;;;;15.95;91.99;101422.56;5034417;28;20053;-63
2023/07/06 03:03:53;;;;;;;6.95;3.15;;;;;;;15.93;92.21;101424.78;5036531;28;20057;-62
2023/07/06 03:06:20;;;;;;;8.25;3.10;;;;;;;15.94;92.15;101426.41;5035651;28;20071;-62
2023/07/06 03:08:48;;;;;;;6.78;3.00;;;;;;;15.92;92.20;101417.63;5035311;28;20508;-62
2023/07/06 03:11:17;;;;;;;7.57;3.25;;;;;;;15.90;92.41;101425.38;5030545;28;20512;-62
2023/07/06 03:13:44;;;;;;;7.60;2.83;;;;;;;15.90;92.34;101419.88;5038236;28;20053;-62
2023/07/06 03:16:12;;;;;;;10.88;3.10;;;;;;;15.91;92.26;101418.75;5059523;28;20060;-62
2023/07/06 03:18:45;;;;;;;7.78;3.25;;;;;;;15.87;92.24;101426.75;5018954;28;20113;-63
2023/07/06 03:21:12;;;;;;;8.27;3.00;;;;;;;15.86;92.48;101429.78;5035904;28;20049;-62
2023/07/06 03:23:41;;;;;;;10.43;3.30;;;;;;;15.87;92.32;101434.16;5057140;28;20101;-65
2023/07/06 03:26:09;;;;;;;10.43;3.55;;;;;;;15.85;92.44;101434.47;5064332;28;20077;-64
2023/07/06 03:28:37;;;;;;;10.15;3.47;;;;;;;15.82;92.32;101439.72;5051848;28;20048;-62
2023/07/06 03:31:04;;;;;;;11.18;3.25;;;;;;;15.82;92.24;101445.22;5035054;28;20049;-64
2023/07/06 03:33:32;;;;;;;5.93;2.72;;;;;;;15.81;92.30;101444.41;5035210;28;20108;-64
2023/07/06 03:36:00;;;;;;;8.88;3.13;;;;;;;15.80;92.74;101447.41;5037615;28;20480;-63
2023/07/06 03:38:29;;;;;;;8.95;3.60;;;;;;;15.79;92.84;101441.13;5039170;28;20041;-64
2023/07/06 03:40:58;;;;;;;6.25;3.03;;;;;;;15.79;93.11;101446.59;5040536;28;20453;-63
2023/07/06 03:43:26;;;;;;;7.15;3.00;;;;;;;15.80;93.01;101441.94;5043565;28;20120;-60
2023/07/06 03:45:53;;;;;;;9.15;3.35;;;;;;;15.80;92.47;101441.94;5036320;28;20065;-61
2023/07/06 03:48:22;;;;;;;8.10;3.10;;;;;;;15.79;92.74;101443.06;5058533;28;20481;-64
2023/07/06 03:50:53;;;;;;;7.20;3.17;;;;;;;15.78;93.04;101450.47;5055651;28;20053;-63
2023/07/06 03:53:21;;;;;;;9.63;2.97;;;;;;;15.76;93.17;101453.50;5060103;28;20049;-64
2023/07/06 03:55:53;;;;;;;7.60;2.90;;;;;;;15.74;93.29;101461.22;5066611;28;20076;-62
2023/07/06 03:58:21;;;;;;;5.82;2.95;;;;;;;15.73;93.22;101451.34;5052438;28;20095;-67
2023/07/06 04:00:49;;;;;;;10.15;3.33;;;;;;;15.72;93.57;101449.69;5066988;28;20105;-63
2023/07/06 04:03:18;;;;;;;9.80;3.42;;;;;;;15.73;93.88;101459.56;5055664;28;20049;-65
2023/07/06 04:05:47;;;;;;;9.73;3.08;;;;;;;15.73;94.06;101458.78;5052905;28;20049;-63
2023/07/06 04:08:19;;;;;;;11.88;3.40;;;;;;;15.73;94.01;101461.50;5054791;28;20489;-64
2023/07/06 04:10:47;;;;;;;8.10;3.03;;;;;;;15.73;94.13;101469.75;5051089;28;20045;-63
2023/07/06 04:13:15;;;;;;;9.30;3.17;;;;;;;15.73;94.21;101467.00;5045250;28;20049;-64
2023/07/06 04:15:46;;;;;;;8.15;3.40;;;;;;;15.73;94.68;101464.25;5038370;28;20049;-64
2023/07/06 04:18:17;;;;;;;8.73;3.20;;;;;;;15.73;94.46;101470.56;5034111;28;20410;-63
2023/07/06 04:20:47;;;;;;;7.35;3.70;;;;;;;15.69;94.93;101474.97;5027805;28;20197;-65
2023/07/06 04:23:15;;;;;;;7.38;3.22;;;;;;;15.68;95.08;101473.31;5054060;28;20049;-64
2023/07/06 04:25:43;;;;;;;8.20;3.15;;;;;;;15.68;95.43;101470.59;5050912;28;20057;-63
2023/07/06 04:28:13;;;;;;;10.32;3.42;;;;;;;15.68;95.34;101467.84;5052401;28;20063;-64
2023/07/06 04:30:43;;;;;;;9.80;3.22;;;;;;;15.69;95.71;101468.66;5051435;28;20472;-64
2023/07/06 04:33:20;;;;;;;9.00;3.42;;;;;;;15.67;95.39;101460.69;5035846;28;20073;-63
2023/07/06 04:35:52;;;;;;;8.70;3.38;;;;;;;15.67;95.87;101466.19;5053999;28;20049;-63
2023/07/06 04:38:21;;;;;;;8.65;3.42;;;;;;;15.66;95.59;101481.03;5051188;28;20481;-63
2023/07/06 04:40:50;;;;;;;18.05;3.92;;;;;;;15.66;95.70;101478.28;5051458;28;20063;-65
2023/07/06 04:43:18;;;;;;;11.45;3.72;;;;;;;15.64;95.61;101480.50;5044404;28;20045;-64
2023/07/06 04:45:49;;;;;;;9.02;3.63;;;;;;;15.61;95.73;101488.47;5032813;28;20046;-62
2023/07/06 04:48:16;;;;;;;14.65;4.35;;;;;;;15.59;96.15;101490.72;5034635;28;20512;-62
2023/07/06 04:50:54;;;;;;;11.82;4.07;;;;;;;15.59;96.36;101490.72;5046167;28;20101;-63
2023/07/06 04:53:23;;;;;;;8.68;3.25;;;;;;;15.60;96.69;101493.16;5047659;28;20048;-63
2023/07/06 04:55:51;;;;;;;8.57;3.65;;;;;;;15.61;96.76;101489.31;5052147;28;20053;-64
2023/07/06 04:58:19;;;;;;;10.07;3.60;;;;;;;15.61;96.91;101494.81;5051676;28;20516;-62
2023/07/06 05:00:47;;;;;;;9.50;3.67;;;;;;;15.61;96.86;101494.81;5046267;28;20048;-62
2023/07/06 05:03:15;;;;;;;10.82;3.72;;;;;;;15.63;96.50;101491.75;5041147;28;20045;-63
2023/07/06 05:05:46;;;;;;;11.60;4.03;;;;;;;15.62;96.71;101501.94;5033266;28;20229;-64
2023/07/06 05:08:16;;;;;;;18.85;4.85;;;;;;;15.61;97.22;101494.81;5033719;28;20045;-64
2023/07/06 05:10:47;;;;;;;13.93;4.07;;;;;;;15.65;97.31;101492.28;5050447;28;20457;-63
2023/07/06 05:13:15;;;;;;;10.65;4.18;;;;;;;15.63;97.62;101492.56;5052667;28;20090;-63
2023/07/06 05:15:44;;;;;;;10.27;4.03;;;;;;;15.63;97.83;101497.25;5043456;28;20053;-61
2023/07/06 05:18:12;;;;;;;15.35;4.70;;;;;;;15.64;97.82;101494.22;5037170;28;20401;-63
2023/07/06 05:20:40;;;;;;;12.52;5.10;;;;;;;15.64;98.00;101498.91;5036096;28;20122;-63
2023/07/06 05:23:11;;;;;;;13.82;5.45;;;;;;;15.68;98.28;101488.97;5038590;28;20045;-64
2023/07/06 05:25:39;;;;;;;14.13;5.70;;;;;;;15.71;98.27;101494.75;5058074;28;20049;-64
2023/07/06 05:28:10;;;;;;;14.90;5.38;;;;;;;15.73;98.41;101498.03;5044373;28;20045;-65
2023/07/06 05:30:39;;;;;;;15.27;5.60;;;;;;;15.78;98.52;101497.19;5035830;28;20052;-64
2023/07/06 05:33:07;;;;;;;22.13;6.75;;;;;;;15.81;98.58;101487.56;5019317;28;20052;-63
2023/07/06 05:35:35;;;;;;;13.40;5.70;;;;;;;15.82;99.16;101500.16;5052299;28;20401;-62
2023/07/06 05:38:02;;;;;;;16.65;6.63;;;;;;;15.84;99.52;101497.97;5045816;28;20041;-65
2023/07/06 05:40:30;;;;;;;17.38;6.53;;;;;;;15.87;99.24;101494.63;5036249;28;20358;-63
2023/07/06 05:42:58;;;;;;;14.27;6.90;;;;;;;15.88;99.41;101504.53;5036913;28;20057;-62
2023/07/06 05:45:26;;;;;;;18.77;6.82;;;;;;;15.89;99.49;101500.66;5047675;28;20045;-63
2023/07/06 05:47:54;;;;;;;16.38;6.45;;;;;;;15.91;99.77;101503.94;5054959;28;20056;-63
2023/07/06 05:50:23;;;;;;;13.95;6.57;;;;;;;15.94;99.97;101503.38;5056663;28;20055;-64
2023/07/06 05:52:52;;;;;;;19.30;7.03;;;;;;;15.95;99.53;101507.78;4341453;28;10000212;-63
2023/07/06 05:55:21;;;;;;;17.42;7.68;;;;;;;15.93;99.75;101507.22;5052407;28;20047;-64
2023/07/06 05:57:50;;;;;;;16.30;7.03;;;;;;;15.90;100.00;101516.06;5038105;28;20068;-65
2023/07/06 06:00:18;;;;;;;17.70;8.43;;;;;;;15.87;100.00;101519.38;5015065;28;20049;-65
2023/07/06 06:02:46;;;;;;;17.98;7.97;;;;;;;15.87;100.00;101524.84;5031893;28;20045;-64
2023/07/06 06:05:14;;;;;;;18.30;8.25;;;;;;;15.86;100.00;101523.22;5035074;28;20110;-65
2023/07/06 06:07:43;;;;;;;19.88;8.45;;;;;;;15.86;100.00;101524.03;5042898;28;20049;-65
2023/07/06 06:10:15;;;;;;;15.27;7.90;;;;;;;15.87;100.00;101519.38;5031159;28;20045;-65
2023/07/06 06:12:44;;;;;;;20.88;9.40;;;;;;;15.88;100.00;101521.84;5031740;28;20053;-65
2023/07/06 06:15:14;;;;;;;18.27;9.00;;;;;;;15.90;100.00;101524.31;5032606;28;20055;-63
2023/07/06 06:17:44;;;;;;;16.38;8.18;;;;;;;15.89;100.00;101528.97;5033533;28;20056;-63
2023/07/06 06:20:12;;;;;;;16.13;8.73;;;;;;;15.91;100.00;101531.44;5032882;28;20084;-64
2023/07/06 06:22:40;;;;;;;19.58;9.57;;;;;;;15.92;100.00;101527.56;5035483;28;20064;-64
2023/07/06 06:25:08;;;;;;;17.50;8.88;;;;;;;15.95;100.00;101532.50;5032441;28;20041;-66
2023/07/06 06:27:36;;;;;;;17.17;8.32;;;;;;;15.98;100.00;101540.16;5037223;28;20111;-65
2023/07/06 06:30:05;;;;;;;19.25;8.77;;;;;;;16.02;100.00;101552.25;5042170;28;20113;-63
2023/07/06 06:32:34;;;;;;;19.63;8.90;;;;;;;15.99;100.00;101555.53;5039034;28;20168;-63
2023/07/06 06:35:21;;;;;;;17.65;8.68;;;;;;;15.98;100.00;101559.41;5034337;28;20049;-65
2023/07/06 06:37:49;;;;;;;22.73;10.63;;;;;;;15.96;100.00;101556.13;5046592;28;20041;-62
2023/07/06 06:40:19;;;;;;;21.67;10.43;;;;;;;15.96;100.00;101567.94;5002838;28;20052;-64
2023/07/06 06:42:48;;;;;;;21.83;10.25;;;;;;;15.98;100.00;101557.47;5036391;28;20481;-64
2023/07/06 06:45:19;;;;;;;25.08;11.68;;;;;;;16.01;100.00;101564.31;5035047;28;20474;-65
2023/07/06 06:47:47;;;;;;;16.98;9.18;;;;;;;16.04;100.00;101573.94;5033551;28;20551;-63
2023/07/06 06:50:16;;;;;;;21.08;10.25;;;;;;;16.06;100.00;101569.78;5055658;28;20053;-65
2023/07/06 06:52:47;;;;;;;25.00;9.70;;;;;;;16.13;100.00;101566.72;5054460;28;20052;-63
2023/07/06 06:55:16;;;;;;;23.33;9.32;;;;;;;16.15;100.00;101572.75;5037722;28;20061;-62
2023/07/06 06:57:44;;;;;;;17.65;8.85;;;;;;;16.17;100.00;101573.28;5033827;28;20088;-64
2023/07/06 07:00:16;;;;;;;17.02;8.80;;;;;;;16.22;100.00;101575.19;5034107;28;20057;-63
2023/07/06 07:02:47;;;;;;;21.33;9.90;;;;;;;16.24;100.00;101576.53;5034592;28;20490;-64
2023/07/06 07:05:15;;;;;;;21.10;9.00;;;;;;;16.25;100.00;101574.59;5035596;28;20053;-65
2023/07/06 07:07:43;;;;;;;21.65;9.70;;;;;;;16.22;100.00;101580.69;5045125;28;20053;-63
2023/07/06 07:10:11;;;;;;;19.38;8.85;;;;;;;16.22;100.00;101577.94;5054718;28;20056;-65
2023/07/06 07:12:40;;;;;;;16.88;8.82;;;;;;;16.24;100.00;101575.72;5055611;28;20045;-64
2023/07/06 07:15:09;;;;;;;16.13;8.88;;;;;;;16.28;100.00;101582.25;5054817;28;20048;-62
2023/07/06 07:17:38;;;;;;;23.77;8.82;;;;;;;16.33;100.00;101573.97;5034005;28;20049;-62
2023/07/06 07:20:06;;;;;;;20.13;8.18;;;;;;;16.36;100.00;101581.66;5033816;28;20485;-62
2023/07/06 07:22:35;;;;;;;22.90;8.63;;;;;;;16.38;100.00;101588.50;5034961;28;20041;-63
2023/07/06 07:25:03;;;;;;;20.63;9.02;;;;;;;16.43;100.00;101586.81;5049481;28;20049;-63
2023/07/06 07:27:30;;;;;;;18.98;8.50;;;;;;;16.43;100.00;101584.91;5052730;28;20049;-66
2023/07/06 07:29:58;;;;;;;17.23;7.38;;;;;;;16.44;100.00;101586.53;5055482;28;20049;-63
2023/07/06 07:32:29;;;;;;;19.30;7.93;;;;;;;16.48;100.00;101590.34;5037471;28;20055;-63
2023/07/06 07:34:58;;;;;;;15.63;8.13;;;;;;;16.51;100.00;101589.75;5052085;28;20060;-65
2023/07/06 07:37:26;;;;;;;30.15;10.07;;;;;;;16.57;100.00;101593.28;5034470;28;20045;-63
2023/07/06 07:39:55;;;;;;;31.40;10.90;;;;;;;16.73;100.00;101596.72;5034003;28;20053;-66
2023/07/06 07:42:25;;;;;;;22.25;9.30;;;;;;;16.73;100.00;101602.22;5040873;28;20053;-66
2023/07/06 07:44:57;;;;;;;20.15;8.25;;;;;;;16.74;100.00;101598.34;5053992;28;20048;-64
2023/07/06 07:47:27;;;;;;;19.02;8.68;;;;;;;16.73;100.00;101600.28;5052825;28;20055;-63
2023/07/06 07:49:55;;;;;;;17.00;8.55;;;;;;;16.73;100.00;101605.78;5055690;28;20052;-62
2023/07/06 07:52:23;;;;;;;16.75;7.57;;;;;;;16.73;100.00;101596.72;5054758;28;20049;-63
2023/07/06 07:54:53;;;;;;;21.80;7.63;;;;;;;16.78;100.00;101607.66;5052954;28;20442;-64
2023/07/06 07:57:21;;;;;;;16.52;7.47;;;;;;;16.81;100.00;101609.84;5053500;28;20057;-66
2023/07/06 07:59:49;;;;;;;17.33;7.60;;;;;;;16.81;100.00;101609.84;5052997;28;20053;-63
2023/07/06 08:02:17;;;;;;;19.65;7.75;;;;;;;16.81;100.00;101616.22;5055808;28;20114;-62
2023/07/06 08:04:47;;;;;;;16.85;7.55;;;;;;;16.79;100.00;101617.63;5054409;28;20048;-64
2023/07/06 08:07:16;;;;;;;15.15;7.90;;;;;;;16.78;100.00;101613.16;5036574;28;20046;-65
2023/07/06 08:09:43;;;;;;;18.77;7.70;;;;;;;16.79;100.00;101615.69;5031151;28;20120;-62
2023/07/06 08:12:11;;;;;;;11.95;6.75;;;;;;;16.81;100.00;101620.88;5045760;28;20133;-63
2023/07/06 08:14:43;;;;;;;16.02;7.47;;;;;;;16.82;100.00;101617.84;5039495;28;20162;-63
2023/07/06 08:17:12;;;;;;;14.75;6.95;;;;;;;16.84;100.00;101614.81;5034350;28;20053;-67
2023/07/06 08:19:40;;;;;;;16.27;7.65;;;;;;;16.86;100.00;101615.34;5046651;28;20123;-65
2023/07/06 08:22:29;;;;;;;16.70;7.63;;;;;;;16.88;100.00;101618.59;5045189;28;20188;-65
2023/07/06 08:24:58;;;;;;;29.05;9.38;;;;;;;17.00;98.71;101619.03;5032708;28;20120;-63
2023/07/06 08:27:26;;;;;;;17.63;8.25;;;;;;;17.04;100.00;101614.56;5047274;28;20045;-63
2023/07/06 08:29:54;;;;;;;19.73;8.45;;;;;;;17.15;98.03;101622.72;5016561;28;20408;-63
2023/07/06 08:32:22;;;;;;;19.63;8.88;;;;;;;17.19;99.05;101630.09;5000299;28;20508;-63
2023/07/06 08:34:50;;;;;;;25.60;9.02;;;;;;;17.30;98.26;101630.81;5033971;28;20072;-64
2023/07/06 08:37:18;;;;;;;19.30;7.35;;;;;;;17.34;98.02;101631.88;5032972;28;20068;-63
2023/07/06 08:39:47;;;;;;;19.88;7.90;;;;;;;17.39;97.09;101630.97;5053062;28;20094;-64
2023/07/06 08:42:18;;;;;;;23.10;8.55;;;;;;;17.39;96.58;101629.06;5054107;28;20393;-65
2023/07/06 08:44:53;;;;;;;24.27;8.95;;;;;;;17.54;94.34;101638.25;5050931;28;20079;-64
2023/07/06 08:47:25;;;;;;;27.13;8.65;;;;;;;17.54;94.71;101638.25;5036998;28;20059;-64
2023/07/06 08:49:54;;;;;;;19.80;7.43;;;;;;;17.60;93.56;101631.53;5014501;28;20053;-64
2023/07/06 08:52:24;;;;;;;17.42;7.72;;;;;;;17.63;93.95;101641.97;4988085;28;20061;-63
2023/07/06 08:54:52;;;;;;;20.40;9.48;;;;;;;17.63;95.35;101637.28;5039167;28;20075;-62
2023/07/06 08:57:23;;;;;;;19.73;9.02;;;;;;;17.61;96.09;101645.03;5056184;28;20150;-62
2023/07/06 08:59:52;;;;;;;23.88;8.88;;;;;;;17.64;96.23;101647.19;5055904;28;20481;-63
2023/07/06 09:02:26;;;;;;;16.10;7.10;;;;;;;17.64;95.77;101649.13;5056073;28;20071;-64
2023/07/06 09:04:56;;;;;;;19.42;7.75;;;;;;;17.65;95.88;101646.09;5039645;28;20041;-63
2023/07/06 09:07:34;;;;;;;15.23;5.53;;;;;;;17.68;92.43;101653.75;5052542;28;20041;-65
2023/07/06 09:10:11;;;;;;;20.13;7.45;;;;;;;17.79;93.18;101654.44;5041930;28;20073;-64
2023/07/06 09:12:53;;;;;;;18.85;8.77;;;;;;;17.77;95.00;101653.91;5037956;28;20046;-63
2023/07/06 09:15:27;;;;;;;19.52;8.40;;;;;;;17.78;95.12;101644.53;5048461;28;20045;-62
2023/07/06 09:18:03;;;;;;;15.30;6.85;;;;;;;17.80;95.17;101653.38;5048284;28;20072;-64
2023/07/06 09:20:33;;;;;;;16.30;7.57;;;;;;;17.88;92.47;101660.16;5038634;28;20045;-63
2023/07/06 09:23:05;;;;;;;14.35;6.18;;;;;;;17.92;92.26;101661.19;5047471;28;20045;-63
2023/07/06 09:25:42;;;;;;;16.50;7.05;;;;;;;17.96;91.25;101653.13;5038995;28;20126;-63
2023/07/06 09:28:18;;;;;;;19.05;7.28;;;;;;;18.05;89.89;101654.13;5061301;28;20116;-63
2023/07/06 09:30:48;;;;;;;15.65;6.55;;;;;;;18.11;89.09;101641.88;5045287;28;20104;-64
2023/07/06 09:33:19;;;;;;;18.10;7.45;;;;;;;18.13;88.65;101649.84;5059362;28;20045;-66
2023/07/06 09:35:52;;;;;;;18.98;6.28;;;;;;;18.17;88.20;101648.16;5028255;28;20145;-65
2023/07/06 09:38:23;;;;;;;17.67;7.00;;;;;;;18.25;88.55;101656.56;5042621;28;20094;-64
2023/07/06 09:40:52;;;;;;;19.75;6.53;;;;;;;18.28;88.57;101649.66;5036974;28;20101;-63
2023/07/06 09:43:21;;;;;;;21.38;8.40;;;;;;;18.22;89.17;101648.88;5036519;28;20057;-64
2023/07/06 09:45:51;;;;;;;11.10;4.90;;;;;;;18.18;89.21;101660.81;5051087;28;20037;-64
2023/07/06 09:48:25;;;;;;;15.82;7.88;;;;;;;18.12;88.57;101659.25;5040522;28;20049;-63
2023/07/06 09:51:02;;;;;;;19.77;8.18;;;;;;;18.11;88.40;101647.38;5057612;28;20045;-64
2023/07/06 09:53:33;;;;;;;15.75;6.13;;;;;;;18.22;87.74;101648.06;5050600;28;20058;-63
2023/07/06 09:56:03;;;;;;;17.45;6.90;;;;;;;18.38;86.18;101645.91;5054483;28;20071;-64
2023/07/06 09:58:31;;;;;;;14.00;5.68;;;;;;;18.41;85.90;101657.13;5038064;28;20061;-66
2023/07/06 10:01:24;;;;;;;17.48;7.03;;;;;;;18.40;85.57;101654.66;5049106;28;20042;-65
2023/07/06 10:04:00;;;;;;;15.43;7.55;;;;;;;18.40;86.38;101652.75;5055026;28;20045;-64
2023/07/06 10:06:44;;;;;;;16.10;7.15;;;;;;;18.47;85.84;101646.81;5053917;28;20049;-64
2023/07/06 10:09:27;;;;;;;35.83;13.30;;;;;;;18.57;84.95;101638.41;5053025;28;20040;-63
2023/07/06 10:11:57;;;;;;;18.25;7.55;;;;;;;18.57;83.84;101649.44;5020682;28;20513;-64
2023/07/06 10:14:45;;;;;;;16.58;6.78;;;;;;;18.56;82.53;101656.06;5052289;28;20053;-63
2023/07/06 10:17:37;;;;;;;27.13;8.98;;;;;;;18.59;84.34;101652.72;5037609;28;20053;-64
2023/07/06 10:20:13;;;;;;;17.98;6.63;;;;;;;18.56;83.38;101652.50;5052345;28;20074;-65
2023/07/06 10:22:50;;;;;;;18.60;6.97;;;;;;;18.61;84.06;101649.63;5043390;28;20053;-64
2023/07/06 10:25:33;;;;;;;14.77;5.72;;;;;;;18.55;83.10;101643.41;5033951;28;20051;-65
2023/07/06 10:28:19;;;;;;;15.13;6.68;;;;;;;18.62;83.07;101641.06;5033740;28;20378;-63
2023/07/06 10:30:49;;;;;;;;;;;;;;;18.65;82.15;101640.47;5048908;28;20052;-64
2023/07/06 10:33:40;;;;;;;16.13;6.30;;;;;;;18.85;83.23;101632.97;5051144;28;19920;-65
2023/07/06 10:36:12;;;;;;;15.65;5.88;;;;;;;19.00;82.00;101638.22;5055274;28;20053;-63
2023/07/06 10:38:40;;;;;;;1565.10;125.47;;;;;;;19.10;77.31;101637.19;5036896;28;20052;-62
2023/07/06 10:41:11;;;;;;;15.43;4.97;;;;;;;19.20;80.28;101636.19;5043485;28;20064;-64
2023/07/06 10:43:42;;;;;;;14.98;5.00;;;;;;;19.23;78.44;101638.31;5051864;28;20465;-64
2023/07/06 10:46:35;;;;;;;11.68;5.00;;;;;;;19.20;78.47;101636.19;5053294;28;20060;-64
2023/07/06 10:49:19;;;;;;;11.88;5.10;;;;;;;19.22;77.66;101633.91;5054279;28;20047;-64
2023/07/06 10:51:51;;;;;;;13.05;4.60;;;;;;;19.31;76.92;101646.72;5050711;28;20516;-63
2023/07/06 10:54:28;;;;;;;12.25;4.70;;;;;;;19.31;75.71;101638.44;5037183;28;20061;-64
2023/07/06 10:59:52;;;;;;;8.73;3.50;;;;;;;19.47;76.50;101638.94;5110958;27;1273181;-64
2023/07/06 11:02:40;;;;;;;12.43;4.25;;;;;;;19.57;72.10;101637.88;5127536;28;20107;-64
2023/07/06 11:05:19;;;;;;;14.23;4.03;;;;;;;19.56;71.88;101639.84;5131062;28;20376;-63
2023/07/06 11:07:52;;;;;;;9.75;3.65;;;;;;;19.57;69.60;101644.22;5131187;28;20487;-63
2023/07/06 11:10:22;;;;;;;7.18;3.33;;;;;;;19.56;71.58;101645.38;5130425;28;20039;-65
2023/07/06 11:13:12;;;;;;;10.95;3.85;;;;;;;19.50;68.78;101641.06;5131192;27;20053;-64
2023/07/06 11:15:50;;;;;;;9.18;3.40;;;;;;;19.47;72.25;101644.47;5122806;28;20104;-64
2023/07/06 11:18:18;;;;;;;10.57;4.07;;;;;;;19.48;68.56;101657.16;5132535;27;20050;-64
2023/07/06 11:20:51;;;;;;;8.45;3.35;;;;;;;19.49;66.97;101647.72;5137511;27;20442;-63
2023/07/06 11:23:30;;;;;;;7.47;3.03;;;;;;;19.56;65.89;101645.38;5097083;28;20048;-64
2023/07/06 11:25:59;;;;;;;9.73;3.40;;;;;;;19.59;66.22;101647.50;5093548;28;20052;-64
2023/07/06 11:28:27;;;;;;;8.77;3.25;;;;;;;19.63;67.50;101646.91;5110575;28;20048;-63
2023/07/06 11:31:26;;;;;;;9.02;3.13;;;;;;;19.68;67.56;101655.13;5118803;28;20058;-64
2023/07/06 11:34:03;;;;;;;10.25;3.20;;;;;;;19.65;66.83;101651.00;5130089;27;20047;-64
2023/07/06 11:36:57;;;;;;;9.40;3.13;;;;;;;19.63;67.25;101655.22;5131548;28;20055;-65
2023/07/06 11:39:31;;;;;;;7.60;2.72;;;;;;;19.52;64.68;101652.63;5133427;28;20043;-66
2023/07/06 11:41:59;;;;;;;9.60;3.80;;;;;;;19.45;65.35;101652.22;5133312;27;20445;-64
2023/07/06 11:44:35;;;;;;;12.15;4.15;;;;;;;19.41;64.49;101662.28;5127666;28;20059;-64